sensor_id;sensor_type;location;lat;lon;timestamp;pressure;altitude;pressure_sealevel;temperature;humidity
14041;BME280;7095;51.388;6.196;2022-11-18T00:01:44;103053.06;;;-145.32;100.00
14041;BME280;7095;51.388;6.196;2022-11-18T00:04:13;103053.06;;;-145.32;100.00
14041;BME280;7095;51.388;6.196;2022-11-18T00:06:41;103053.06;;;-145.32;100.00
14041;BME280;7095;51.388;6.196;2022-11-18T00:09:11;103311.25;;;-145.32;100.00
14041;BME280;7095;51.388;6.196;2022-11-18T00:11:41;103569.44;;;-145.32;100.00
14041;BME280;7095;51.388;6.196;2022-11-18T00:14:27;103827.66;;;-145.32;100.00
14041;BME280;7095;51.388;6.196;2022-11-18T00:16:59;103827.66;;;-145.32;100.00
14041;BME280;7095;51.388;6.196;2022-11-18T00:19:29;103827.66;;;-145.32;100.00
14041;BME280;7095;51.388;6.196;2022-11-18T00:21:58;104085.91;;;-145.32;100.00
14041;BME280;7095;51.388;6.196;2022-11-18T00:24:29;104085.91;;;-145.32;100.00
14041;BME280;7095;51.388;6.196;2022-11-18T00:26:58;104085.91;;;-145.32;100.00
14041;BME280;7095;51.388;6.196;2022-11-18T00:29:26;103827.66;;;-145.32;100.00
14041;BME280;7095;51.388;6.196;2022-11-18T00:31:57;103827.66;;;-145.32;100.00
14041;BME280;7095;51.388;6.196;2022-11-18T00:34:25;103827.66;;;-145.32;100.00
14041;BME280;7095;51.388;6.196;2022-11-18T00:36:54;104085.91;;;-145.32;100.00
14041;BME280;7095;51.388;6.196;2022-11-18T00:39:23;103827.66;;;-145.32;100.00
14041;BME280;7095;51.388;6.196;2022-11-18T00:41:53;104085.91;;;-145.32;100.00
14041;BME280;7095;51.388;6.196;2022-11-18T00:44:40;103827.66;;;-145.32;100.00
14041;BME280;7095;51.388;6.196;2022-11-18T00:47:09;103569.44;;;-145.32;100.00
14041;BME280;7095;51.388;6.196;2022-11-18T00:49:37;103827.66;;;-145.32;100.00
14041;BME280;7095;51.388;6.196;2022-11-18T00:52:06;103569.44;;;-145.32;100.00
14041;BME280;7095;51.388;6.196;2022-11-18T00:54:34;103311.25;;;-145.32;100.00
14041;BME280;7095;51.388;6.196;2022-11-18T00:57:05;103569.44;;;-145.32;100.00
14041;BME280;7095;51.388;6.196;2022-11-18T00:59:33;103569.44;;;-145.32;100.00
14041;BME280;7095;51.388;6.196;2022-11-18T01:02:02;103053.06;;;-145.32;100.00
14041;BME280;7095;51.388;6.196;2022-11-18T01:04:31;103053.06;;;-145.32;100.00
14041;BME280;7095;51.388;6.196;2022-11-18T01:06:59;103053.06;;;-145.32;100.00
14041;BME280;7095;51.388;6.196;2022-11-18T01:09:28;103569.44;;;-145.32;100.00
14041;BME280;7095;51.388;6.196;2022-11-18T01:11:57;103569.44;;;-145.32;100.00
14041;BME280;7095;51.388;6.196;2022-11-18T01:14:40;103569.44;;;-145.32;100.00
14041;BME280;7095;51.388;6.196;2022-11-18T01:17:09;103311.25;;;-145.32;100.00
14041;BME280;7095;51.388;6.196;2022-11-18T01:19:38;103053.06;;;-145.32;100.00
14041;BME280;7095;51.388;6.196;2022-11-18T01:22:08;103053.06;;;-145.32;100.00
14041;BME280;7095;51.388;6.196;2022-11-18T01:24:37;103053.06;;;-145.32;100.00
14041;BME280;7095;51.388;6.196;2022-11-18T01:27:05;103053.06;;;-145.32;100.00
14041;BME280;7095;51.388;6.196;2022-11-18T01:29:35;103311.25;;;-145.32;100.00
14041;BME280;7095;51.388;6.196;2022-11-18T01:32:05;103311.25;;;-145.32;100.00
14041;BME280;7095;51.388;6.196;2022-11-18T01:34:50;103053.06;;;-145.32;100.00
14041;BME280;7095;51.388;6.196;2022-11-18T01:37:19;103569.44;;;-145.32;100.00
14041;BME280;7095;51.388;6.196;2022-11-18T01:39:48;103569.44;;;-145.32;100.00
14041;BME280;7095;51.388;6.196;2022-11-18T01:42:17;103569.44;;;-145.32;100.00
14041;BME280;7095;51.388;6.196;2022-11-18T01:48:03;103053.06;;;-145.32;100.00
14041;BME280;7095;51.388;6.196;2022-11-18T01:50:36;103053.06;;;-145.32;100.00
14041;BME280;7095;51.388;6.196;2022-11-18T01:53:11;102794.91;;;-145.32;100.00
14041;BME280;7095;51.388;6.196;2022-11-18T01:55:44;103053.06;;;-145.32;100.00
14041;BME280;7095;51.388;6.196;2022-11-18T01:58:17;103311.25;;;-145.32;100.00
14041;BME280;7095;51.388;6.196;2022-11-18T02:00:50;103311.25;;;-145.32;100.00
14041;BME280;7095;51.388;6.196;2022-11-18T02:03:20;103827.66;;;-145.32;100.00
14041;BME280;7095;51.388;6.196;2022-11-18T02:05:51;103569.44;;;-145.32;100.00
14041;BME280;7095;51.388;6.196;2022-11-18T02:08:22;103311.25;;;-145.32;100.00
14041;BME280;7095;51.388;6.196;2022-11-18T02:10:51;103569.44;;;-145.32;100.00
14041;BME280;7095;51.388;6.196;2022-11-18T02:13:20;103827.66;;;-145.32;100.00
14041;BME280;7095;51.388;6.196;2022-11-18T02:15:55;103827.66;;;-145.32;100.00
14041;BME280;7095;51.388;6.196;2022-11-18T02:18:35;103569.44;;;-145.32;100.00
14041;BME280;7095;51.388;6.196;2022-11-18T02:21:16;103569.44;;;-145.32;100.00
14041;BME280;7095;51.388;6.196;2022-11-18T02:24:21;103827.66;;;-145.32;100.00
14041;BME280;7095;51.388;6.196;2022-11-18T02:29:54;104085.91;;;-145.32;100.00
14041;BME280;7095;51.388;6.196;2022-11-18T02:32:28;103827.66;;;-145.32;100.00
14041;BME280;7095;51.388;6.196;2022-11-18T02:35:03;103827.66;;;-145.32;100.00
14041;BME280;7095;51.388;6.196;2022-11-18T02:37:38;103569.44;;;-145.32;100.00
14041;BME280;7095;51.388;6.196;2022-11-18T02:40:14;103311.25;;;-145.32;100.00
14041;BME280;7095;51.388;6.196;2022-11-18T02:42:49;103053.06;;;-145.32;100.00
14041;BME280;7095;51.388;6.196;2022-11-18T02:45:21;103053.06;;;-145.32;100.00
14041;BME280;7095;51.388;6.196;2022-11-18T02:47:51;102794.91;;;-145.32;100.00
14041;BME280;7095;51.388;6.196;2022-11-18T02:50:23;103053.06;;;-145.32;100.00
14041;BME280;7095;51.388;6.196;2022-11-18T02:52:57;103053.06;;;-145.32;100.00
14041;BME280;7095;51.388;6.196;2022-11-18T02:55:27;103311.25;;;-145.32;100.00
14041;BME280;7095;51.388;6.196;2022-11-18T02:57:59;103827.66;;;-145.32;100.00
14041;BME280;7095;51.388;6.196;2022-11-18T03:00:31;103827.66;;;-145.32;100.00
14041;BME280;7095;51.388;6.196;2022-11-18T03:03:27;103827.66;;;-145.32;100.00
14041;BME280;7095;51.388;6.196;2022-11-18T03:06:06;104085.91;;;-145.32;100.00
14041;BME280;7095;51.388;6.196;2022-11-18T03:08:39;103569.44;;;-145.32;100.00
14041;BME280;7095;51.388;6.196;2022-11-18T03:11:14;103311.25;;;-145.32;100.00
14041;BME280;7095;51.388;6.196;2022-11-18T03:13:56;103569.44;;;-145.32;100.00
14041;BME280;7095;51.388;6.196;2022-11-18T03:16:39;103569.44;;;-145.32;100.00
14041;BME280;7095;51.388;6.196;2022-11-18T03:19:17;103569.44;;;-145.32;100.00
14041;BME280;7095;51.388;6.196;2022-11-18T03:21:55;103569.44;;;-145.32;100.00
14041;BME280;7095;51.388;6.196;2022-11-18T03:24:29;103569.44;;;-145.32;100.00
14041;BME280;7095;51.388;6.196;2022-11-18T03:27:04;103569.44;;;-145.32;100.00
14041;BME280;7095;51.388;6.196;2022-11-18T03:29:37;103569.44;;;-145.32;100.00
14041;BME280;7095;51.388;6.196;2022-11-18T03:32:14;103311.25;;;-145.32;100.00
14041;BME280;7095;51.388;6.196;2022-11-18T03:34:46;102794.91;;;-145.32;100.00
14041;BME280;7095;51.388;6.196;2022-11-18T03:37:18;103311.25;;;-145.32;100.00
14041;BME280;7095;51.388;6.196;2022-11-18T03:39:51;103569.44;;;-145.32;100.00
14041;BME280;7095;51.388;6.196;2022-11-18T03:42:26;103311.25;;;-145.32;100.00
14041;BME280;7095;51.388;6.196;2022-11-18T03:44:59;103569.44;;;-145.32;100.00
14041;BME280;7095;51.388;6.196;2022-11-18T03:47:34;103827.66;;;-145.32;100.00
14041;BME280;7095;51.388;6.196;2022-11-18T03:50:10;104085.91;;;-145.32;100.00
14041;BME280;7095;51.388;6.196;2022-11-18T03:52:40;104085.91;;;-145.32;100.00
14041;BME280;7095;51.388;6.196;2022-11-18T03:55:12;103827.66;;;-145.32;100.00
14041;BME280;7095;51.388;6.196;2022-11-18T03:57:45;103569.44;;;-145.32;100.00
14041;BME280;7095;51.388;6.196;2022-11-18T04:00:17;103053.06;;;-145.32;100.00
14041;BME280;7095;51.388;6.196;2022-11-18T04:02:50;102536.75;;;-145.32;100.00
14041;BME280;7095;51.388;6.196;2022-11-18T04:05:19;101504.38;;;-145.32;100.00
14041;BME280;7095;51.388;6.196;2022-11-18T04:07:53;101246.34;;;-145.32;100.00
14041;BME280;7095;51.388;6.196;2022-11-18T04:10:28;100730.31;;;-145.32;100.00
14041;BME280;7095;51.388;6.196;2022-11-18T04:13:02;101246.34;;;-145.32;100.00
14041;BME280;7095;51.388;6.196;2022-11-18T04:15:35;100214.34;;;-145.32;100.00
14041;BME280;7095;51.388;6.196;2022-11-18T04:18:07;100214.34;;;-145.32;100.00
14041;BME280;7095;51.388;6.196;2022-11-18T04:20:36;99956.41;;;-145.32;100.00
14041;BME280;7095;51.388;6.196;2022-11-18T04:23:06;99182.69;;;-145.32;100.00
14041;BME280;7095;51.388;6.196;2022-11-18T04:25:35;98151.31;;;-145.32;100.00
14041;BME280;7095;51.388;6.196;2022-11-18T04:28:04;98924.81;;;-145.32;100.00
14041;BME280;7095;51.388;6.196;2022-11-18T04:30:33;97893.50;;;-145.32;100.00
14041;BME280;7095;51.388;6.196;2022-11-18T04:33:02;97893.50;;;-145.32;100.00
14041;BME280;7095;51.388;6.196;2022-11-18T04:35:32;97120.22;;;-145.32;100.00
14041;BME280;7095;51.388;6.196;2022-11-18T04:38:01;96089.47;;;-145.32;100.00
14041;BME280;7095;51.388;6.196;2022-11-18T04:40:31;96862.50;;;-145.32;100.00
14041;BME280;7095;51.388;6.196;2022-11-18T04:42:59;96604.81;;;-145.32;100.00
14041;BME280;7095;51.388;6.196;2022-11-18T04:45:28;95059.00;;;-145.32;100.00
14041;BME280;7095;51.388;6.196;2022-11-18T04:47:57;94801.44;;;-145.32;100.00
14041;BME280;7095;51.388;6.196;2022-11-18T04:50:29;94543.91;;;-145.32;100.00
14041;BME280;7095;51.388;6.196;2022-11-18T04:53:00;92741.59;;;-145.32;100.00
14041;BME280;7095;51.388;6.196;2022-11-18T04:55:29;92484.19;;;-145.32;100.00
14041;BME280;7095;51.388;6.196;2022-11-18T04:57:58;91969.47;;;-145.32;100.00
14041;BME280;7095;51.388;6.196;2022-11-18T05:00:26;92226.81;;;-145.32;100.00
14041;BME280;7095;51.388;6.196;2022-11-18T05:02:55;91712.13;;;-145.32;100.00
14041;BME280;7095;51.388;6.196;2022-11-18T05:05:24;90682.97;;;-145.32;100.00
14041;BME280;7095;51.388;6.196;2022-11-18T05:07:52;90940.22;;;-145.32;100.00
14041;BME280;7095;51.388;6.196;2022-11-18T05:10:23;89911.31;;;-145.32;100.00
14041;BME280;7095;51.388;6.196;2022-11-18T05:12:52;90682.97;;;-145.32;100.00
14041;BME280;7095;51.388;6.196;2022-11-18T05:15:20;91454.81;;;-145.32;100.00
14041;BME280;7095;51.388;6.196;2022-11-18T05:17:50;90940.22;;;-145.32;100.00
14041;BME280;7095;51.388;6.196;2022-11-18T05:20:19;90940.22;;;-145.32;100.00
14041;BME280;7095;51.388;6.196;2022-11-18T05:22:48;90168.50;;;-145.32;100.00
14041;BME280;7095;51.388;6.196;2022-11-18T05:25:17;89911.31;;;-145.32;100.00
14041;BME280;7095;51.388;6.196;2022-11-18T05:27:47;88625.56;;;-145.32;100.00
14041;BME280;7095;51.388;6.196;2022-11-18T05:30:16;89396.97;;;-145.32;100.00
14041;BME280;7095;51.388;6.196;2022-11-18T05:32:45;88625.56;;;-145.32;100.00
14041;BME280;7095;51.388;6.196;2022-11-18T05:35:16;88625.56;;;-145.32;100.00
14041;BME280;7095;51.388;6.196;2022-11-18T05:37:45;88368.50;;;-145.32;100.00
14041;BME280;7095;51.388;6.196;2022-11-18T05:40:14;88368.50;;;-145.32;100.00
14041;BME280;7095;51.388;6.196;2022-11-18T05:42:42;88368.50;;;-145.32;100.00
14041;BME280;7095;51.388;6.196;2022-11-18T05:45:30;87340.31;;;-145.32;100.00
14041;BME280;7095;51.388;6.196;2022-11-18T05:47:59;88111.41;;;-145.32;100.00
14041;BME280;7095;51.388;6.196;2022-11-18T05:50:30;88368.50;;;-145.32;100.00
14041;BME280;7095;51.388;6.196;2022-11-18T05:53:00;88111.41;;;-145.32;100.00
14041;BME280;7095;51.388;6.196;2022-11-18T05:55:34;88882.69;;;-145.32;100.00
14041;BME280;7095;51.388;6.196;2022-11-18T05:58:04;87854.38;;;-145.32;100.00
14041;BME280;7095;51.388;6.196;2022-11-18T06:00:35;88111.41;;;-145.32;100.00
14041;BME280;7095;51.388;6.196;2022-11-18T06:03:08;88111.41;;;-145.32;100.00
14041;BME280;7095;51.388;6.196;2022-11-18T06:05:40;87597.34;;;-145.32;100.00
14041;BME280;7095;51.388;6.196;2022-11-18T06:08:10;86569.41;;;-145.32;100.00
14041;BME280;7095;51.388;6.196;2022-11-18T06:10:42;85541.78;;;-145.32;100.00
14041;BME280;7095;51.388;6.196;2022-11-18T06:13:15;85541.78;;;-145.32;100.00
14041;BME280;7095;51.388;6.196;2022-11-18T06:15:47;85798.66;;;-145.32;100.00
14041;BME280;7095;51.388;6.196;2022-11-18T06:18:19;86312.47;;;-145.32;100.00
14041;BME280;7095;51.388;6.196;2022-11-18T06:20:52;86569.41;;;-145.32;100.00
14041;BME280;7095;51.388;6.196;2022-11-18T06:23:22;85541.78;;;-145.32;100.00
14041;BME280;7095;51.388;6.196;2022-11-18T06:25:51;85284.91;;;-145.32;100.00
14041;BME280;7095;51.388;6.196;2022-11-18T06:28:21;86055.56;;;-145.32;100.00
14041;BME280;7095;51.388;6.196;2022-11-18T06:30:52;86826.34;;;-145.32;100.00
14041;BME280;7095;51.388;6.196;2022-11-18T06:33:21;86312.47;;;-145.32;100.00
14041;BME280;7095;51.388;6.196;2022-11-18T06:35:50;86312.47;;;-145.32;100.00
14041;BME280;7095;51.388;6.196;2022-11-18T06:38:20;87083.34;;;-145.32;100.00
14041;BME280;7095;51.388;6.196;2022-11-18T06:40:50;87340.31;;;-145.32;100.00
14041;BME280;7095;51.388;6.196;2022-11-18T06:43:19;87597.34;;;-145.32;100.00
14041;BME280;7095;51.388;6.196;2022-11-18T06:46:10;87597.34;;;-145.32;100.00
14041;BME280;7095;51.388;6.196;2022-11-18T06:48:58;87597.34;;;-145.32;100.00
14041;BME280;7095;51.388;6.196;2022-11-18T06:51:27;88111.41;;;-145.32;100.00
14041;BME280;7095;51.388;6.196;2022-11-18T06:53:56;87340.31;;;-145.32;100.00
14041;BME280;7095;51.388;6.196;2022-11-18T06:56:25;87340.31;;;-145.32;100.00
14041;BME280;7095;51.388;6.196;2022-11-18T06:58:55;86569.41;;;-145.32;100.00
14041;BME280;7095;51.388;6.196;2022-11-18T07:01:27;86055.56;;;-145.32;100.00
14041;BME280;7095;51.388;6.196;2022-11-18T07:03:57;87083.34;;;-145.32;100.00
14041;BME280;7095;51.388;6.196;2022-11-18T07:06:28;87083.34;;;-145.32;100.00
14041;BME280;7095;51.388;6.196;2022-11-18T07:08:58;86826.34;;;-145.32;100.00
14041;BME280;7095;51.388;6.196;2022-11-18T07:11:27;87083.34;;;-145.32;100.00
14041;BME280;7095;51.388;6.196;2022-11-18T07:13:57;87083.34;;;-145.32;100.00
14041;BME280;7095;51.388;6.196;2022-11-18T07:16:28;87597.34;;;-145.32;100.00
14041;BME280;7095;51.388;6.196;2022-11-18T07:18:57;87083.34;;;-145.32;100.00
14041;BME280;7095;51.388;6.196;2022-11-18T07:21:28;86826.34;;;-145.32;100.00
14041;BME280;7095;51.388;6.196;2022-11-18T07:23:57;86312.47;;;-145.32;100.00
14041;BME280;7095;51.388;6.196;2022-11-18T07:26:26;86569.41;;;-145.32;100.00
14041;BME280;7095;51.388;6.196;2022-11-18T07:28:54;86826.34;;;-145.32;100.00
14041;BME280;7095;51.388;6.196;2022-11-18T07:31:24;86826.34;;;-145.32;100.00
14041;BME280;7095;51.388;6.196;2022-11-18T07:33:54;86312.47;;;-145.32;100.00
14041;BME280;7095;51.388;6.196;2022-11-18T07:36:25;86826.34;;;-145.32;100.00
14041;BME280;7095;51.388;6.196;2022-11-18T07:39:03;86312.47;;;-145.32;100.00
14041;BME280;7095;51.388;6.196;2022-11-18T07:41:32;86569.41;;;-145.32;100.00
14041;BME280;7095;51.388;6.196;2022-11-18T07:44:03;87340.31;;;-145.32;100.00
14041;BME280;7095;51.388;6.196;2022-11-18T07:46:35;87597.34;;;-145.32;100.00
14041;BME280;7095;51.388;6.196;2022-11-18T07:49:07;87854.38;;;-145.32;100.00
14041;BME280;7095;51.388;6.196;2022-11-18T07:51:38;88111.41;;;-145.32;100.00
14041;BME280;7095;51.388;6.196;2022-11-18T07:54:08;88111.41;;;-145.32;100.00
14041;BME280;7095;51.388;6.196;2022-11-18T07:56:37;88368.50;;;-145.32;100.00
14041;BME280;7095;51.388;6.196;2022-11-18T07:59:07;88625.56;;;-145.32;100.00
14041;BME280;7095;51.388;6.196;2022-11-18T08:01:37;88882.69;;;-145.32;100.00
14041;BME280;7095;51.388;6.196;2022-11-18T08:04:09;89139.81;;;-145.32;100.00
14041;BME280;7095;51.388;6.196;2022-11-18T08:06:38;89396.97;;;-145.32;100.00
14041;BME280;7095;51.388;6.196;2022-11-18T08:09:08;89396.97;;;-145.32;100.00
14041;BME280;7095;51.388;6.196;2022-11-18T08:11:37;89654.13;;;-145.32;100.00
14041;BME280;7095;51.388;6.196;2022-11-18T08:14:07;89139.81;;;-145.32;100.00
14041;BME280;7095;51.388;6.196;2022-11-18T08:16:36;89396.97;;;-145.32;100.00
14041;BME280;7095;51.388;6.196;2022-11-18T08:19:06;89396.97;;;-145.32;100.00
14041;BME280;7095;51.388;6.196;2022-11-18T08:21:35;89396.97;;;-145.32;100.00
14041;BME280;7095;51.388;6.196;2022-11-18T08:24:10;89654.13;;;-145.32;100.00
14041;BME280;7095;51.388;6.196;2022-11-18T08:26:49;89654.13;;;-145.32;100.00
14041;BME280;7095;51.388;6.196;2022-11-18T08:29:19;89396.97;;;-145.32;100.00
14041;BME280;7095;51.388;6.196;2022-11-18T08:31:51;88882.69;;;-145.32;100.00
14041;BME280;7095;51.388;6.196;2022-11-18T08:34:22;88882.69;;;-145.32;100.00
14041;BME280;7095;51.388;6.196;2022-11-18T08:36:52;87854.38;;;-145.32;100.00
14041;BME280;7095;51.388;6.196;2022-11-18T08:39:21;87854.38;;;-145.32;100.00
14041;BME280;7095;51.388;6.196;2022-11-18T08:41:50;88111.41;;;-145.32;100.00
14041;BME280;7095;51.388;6.196;2022-11-18T08:44:19;87597.34;;;-145.32;100.00
14041;BME280;7095;51.388;6.196;2022-11-18T08:46:48;87854.38;;;-145.32;100.00
14041;BME280;7095;51.388;6.196;2022-11-18T08:49:17;86826.34;;;-145.32;100.00
14041;BME280;7095;51.388;6.196;2022-11-18T08:51:47;86826.34;;;-145.32;100.00
14041;BME280;7095;51.388;6.196;2022-11-18T08:54:16;85541.78;;;-145.32;100.00
14041;BME280;7095;51.388;6.196;2022-11-18T08:56:45;84771.25;;;-145.32;100.00
14041;BME280;7095;51.388;6.196;2022-11-18T08:59:16;84514.44;;;-145.32;100.00
14041;BME280;7095;51.388;6.196;2022-11-18T09:01:46;83230.72;;;-145.32;100.00
14041;BME280;7095;51.388;6.196;2022-11-18T09:04:15;83487.44;;;-145.32;100.00
14041;BME280;7095;51.388;6.196;2022-11-18T09:06:43;82717.38;;;-145.32;100.00
14041;BME280;7095;51.388;6.196;2022-11-18T09:09:14;79895.28;;;-145.32;100.00
14041;BME280;7095;51.388;6.196;2022-11-18T09:11:43;74514.09;;;-145.32;100.00
14041;BME280;7095;51.388;6.196;2022-11-18T09:14:12;74514.09;;;-145.32;100.00
14041;BME280;7095;51.388;6.196;2022-11-18T09:17:03;71698.75;;;-145.32;100.00
14041;BME280;7095;51.388;6.196;2022-11-18T09:19:35;69750.56;;;-145.32;100.00
14041;BME280;7095;51.388;6.196;2022-11-18T09:22:14;68765.88;;;-145.32;100.00
14041;BME280;7095;51.388;6.196;2022-11-18T09:24:45;67368.28;;;-145.32;100.00
14041;BME280;7095;51.388;6.196;2022-11-18T09:27:14;68082.97;;;-145.32;100.00
14041;BME280;7095;51.388;6.196;2022-11-18T09:29:44;66166.78;;;-145.32;100.00
14041;BME280;7095;51.388;6.196;2022-11-18T09:32:13;64239.69;;;-145.32;100.00
14041;BME280;7095;51.388;6.196;2022-11-18T09:34:42;64267.59;;;-145.32;100.00
14041;BME280;7095;51.388;6.196;2022-11-18T09:37:11;63497.88;;;-145.32;100.00
14041;BME280;7095;51.388;6.196;2022-11-18T09:39:39;61915.06;;;-145.32;100.00
14041;BME280;7095;51.388;6.196;2022-11-18T09:42:22;60297.13;;;-145.32;100.00
14041;BME280;7095;51.388;6.196;2022-11-18T09:45:04;60305.09;;;-145.32;100.00
14041;BME280;7095;51.388;6.196;2022-11-18T09:47:42;59936.59;;;-145.32;100.00
14041;BME280;7095;51.388;6.196;2022-11-18T09:50:15;59775.25;;;-145.32;100.00
14041;BME280;7095;51.388;6.196;2022-11-18T09:53:14;59319.19;;;-145.32;100.00
14041;BME280;7095;51.388;6.196;2022-11-18T09:55:49;58733.72;;;-145.32;100.00
14041;BME280;7095;51.388;6.196;2022-11-18T09:58:26;58580.41;;;-145.32;100.00
14041;BME280;7095;51.388;6.196;2022-11-18T10:00:59;58454.97;;;-145.32;100.00
14041;BME280;7095;51.388;6.196;2022-11-18T10:03:30;57732.34;;;-145.32;100.00
14041;BME280;7095;51.388;6.196;2022-11-18T10:06:04;57680.59;;;-145.32;100.00
14041;BME280;7095;51.388;6.196;2022-11-18T10:09:00;57804.00;;;-145.32;100.00
14041;BME280;7095;51.388;6.196;2022-11-18T10:11:36;58214.09;;;-145.32;100.00
14041;BME280;7095;51.388;6.196;2022-11-18T10:14:25;57893.56;;;-145.32;100.00
14041;BME280;7095;51.388;6.196;2022-11-18T10:17:02;57286.50;;;-145.32;100.00
14041;BME280;7095;51.388;6.196;2022-11-18T10:19:38;57493.47;;;-145.32;100.00
14041;BME280;7095;51.388;6.196;2022-11-18T10:22:18;57304.41;;;-145.32;100.00
14041;BME280;7095;51.388;6.196;2022-11-18T10:24:52;57071.53;;;-145.32;100.00
14041;BME280;7095;51.388;6.196;2022-11-18T10:27:23;57238.72;;;-145.32;100.00
14041;BME280;7095;51.388;6.196;2022-11-18T10:29:56;57362.13;;;-145.32;100.00
14041;BME280;7095;51.388;6.196;2022-11-18T10:32:25;57001.88;;;-145.32;100.00
14041;BME280;7095;51.388;6.196;2022-11-18T10:34:56;56952.13;;;-145.32;100.00
14041;BME280;7095;51.388;6.196;2022-11-18T10:37:27;56864.56;;;-145.32;100.00
14041;BME280;7095;51.388;6.196;2022-11-18T10:40:23;56381.03;;;-145.32;100.00
14041;BME280;7095;51.388;6.196;2022-11-18T10:42:53;55865.72;;;-145.32;100.00
14041;BME280;7095;51.388;6.196;2022-11-18T10:45:29;55714.53;;;-145.32;100.00
14041;BME280;7095;51.388;6.196;2022-11-18T10:48:00;55573.28;;;-145.32;100.00
14041;BME280;7095;51.388;6.196;2022-11-18T10:50:33;55404.19;;;-145.32;100.00
14041;BME280;7095;51.388;6.196;2022-11-18T10:53:03;55324.63;;;-145.32;100.00
14041;BME280;7095;51.388;6.196;2022-11-18T10:55:33;55406.19;;;-145.32;100.00
14041;BME280;7095;51.388;6.196;2022-11-18T10:58:12;55386.28;;;-145.32;100.00
14041;BME280;7095;51.388;6.196;2022-11-18T11:00:46;55288.84;;;-145.32;100.00
14041;BME280;7095;51.388;6.196;2022-11-18T11:03:39;55175.44;;;-145.32;100.00
14041;BME280;7095;51.388;6.196;2022-11-18T11:06:39;55028.25;;;-145.32;100.00
14041;BME280;7095;51.388;6.196;2022-11-18T11:09:24;55137.66;;;-145.32;100.00
14041;BME280;7095;51.388;6.196;2022-11-18T11:11:59;55314.69;;;-145.32;100.00
14041;BME280;7095;51.388;6.196;2022-11-18T11:14:35;55127.72;;;-145.32;100.00
14041;BME280;7095;51.388;6.196;2022-11-18T11:17:09;55046.16;;;-145.32;100.00
14041;BME280;7095;51.388;6.196;2022-11-18T11:19:46;55070.03;;;-145.32;100.00
14041;BME280;7095;51.388;6.196;2022-11-18T11:22:17;55008.38;;;-145.32;100.00
14041;BME280;7095;51.388;6.196;2022-11-18T11:24:46;55131.69;;;-145.32;100.00
14041;BME280;7095;51.388;6.196;2022-11-18T11:27:25;54942.75;;;-145.32;100.00
14041;BME280;7095;51.388;6.196;2022-11-18T11:30:18;54831.38;;;-145.32;100.00
14041;BME280;7095;51.388;6.196;2022-11-18T11:33:18;54859.22;;;-145.32;100.00
14041;BME280;7095;51.388;6.196;2022-11-18T11:36:00;54702.09;;;-145.32;100.00
14041;BME280;7095;51.388;6.196;2022-11-18T11:38:42;54688.16;;;-145.32;100.00
14041;BME280;7095;51.388;6.196;2022-11-18T11:41:21;54712.03;;;-145.32;100.00
14041;BME280;7095;51.388;6.196;2022-11-18T11:44:04;54636.47;;;-145.32;100.00
14041;BME280;7095;51.388;6.196;2022-11-18T11:46:45;54562.88;;;-145.32;100.00
14041;BME280;7095;51.388;6.196;2022-11-18T11:49:51;54509.19;;;-145.32;100.00
14041;BME280;7095;51.388;6.196;2022-11-18T11:52:31;54479.34;;;-145.32;100.00
14041;BME280;7095;51.388;6.196;2022-11-18T11:55:14;54475.38;;;-145.32;100.00
14041;BME280;7095;51.388;6.196;2022-11-18T11:57:56;54366.00;;;-145.32;100.00
14041;BME280;7095;51.388;6.196;2022-11-18T12:00:29;54326.25;;;-145.32;100.00
14041;BME280;7095;51.388;6.196;2022-11-18T12:03:08;54322.25;;;-145.32;100.00
14041;BME280;7095;51.388;6.196;2022-11-18T12:05:42;54375.94;;;-145.32;100.00
14041;BME280;7095;51.388;6.196;2022-11-18T12:08:13;54373.97;;;-145.32;100.00
14041;BME280;7095;51.388;6.196;2022-11-18T12:10:47;54411.75;;;-145.32;100.00
14041;BME280;7095;51.388;6.196;2022-11-18T12:13:30;54435.59;;;-145.32;100.00
14041;BME280;7095;51.388;6.196;2022-11-18T12:16:15;54389.88;;;-145.32;100.00
14041;BME280;7095;51.388;6.196;2022-11-18T12:18:53;54401.81;;;-145.32;100.00
14041;BME280;7095;51.388;6.196;2022-11-18T12:21:54;54409.75;;;-145.32;100.00
14041;BME280;7095;51.388;6.196;2022-11-18T12:24:27;54437.59;;;-145.32;100.00
14041;BME280;7095;51.388;6.196;2022-11-18T12:27:00;54425.66;;;-145.32;100.00
14041;BME280;7095;51.388;6.196;2022-11-18T12:29:35;54342.16;;;-145.32;100.00
14041;BME280;7095;51.388;6.196;2022-11-18T12:32:25;54324.25;;;-145.32;100.00
14041;BME280;7095;51.388;6.196;2022-11-18T12:34:59;54302.38;;;-145.32;100.00
14041;BME280;7095;51.388;6.196;2022-11-18T12:37:43;54256.63;;;-145.32;100.00
14041;BME280;7095;51.388;6.196;2022-11-18T12:40:37;54260.63;;;-145.32;100.00
14041;BME280;7095;51.388;6.196;2022-11-18T12:52:49;54306.34;;;-145.32;100.00
14041;BME280;7095;51.388;6.196;2022-11-18T12:55:24;54244.72;;;-145.32;100.00
14041;BME280;7095;51.388;6.196;2022-11-18T12:57:53;54294.41;;;-145.32;100.00
14041;BME280;7095;51.388;6.196;2022-11-18T13:00:33;54286.47;;;-145.32;100.00
14041;BME280;7095;51.388;6.196;2022-11-18T13:03:24;54214.88;;;-145.32;100.00
14041;BME280;7095;51.388;6.196;2022-11-18T13:06:18;54202.94;;;-145.32;100.00
14041;BME280;7095;51.388;6.196;2022-11-18T13:08:52;54258.63;;;-145.32;100.00
14041;BME280;7095;51.388;6.196;2022-11-18T13:11:24;54258.63;;;-145.32;100.00
14041;BME280;7095;51.388;6.196;2022-11-18T13:14:15;54326.25;;;-145.32;100.00
14041;BME280;7095;51.388;6.196;2022-11-18T13:17:22;54246.69;;;-145.32;100.00
14041;BME280;7095;51.388;6.196;2022-11-18T13:20:22;54262.59;;;-145.32;100.00
14041;BME280;7095;51.388;6.196;2022-11-18T13:22:55;54371.97;;;-145.32;100.00
14041;BME280;7095;51.388;6.196;2022-11-18T13:25:44;54294.41;;;-145.32;100.00
14041;BME280;7095;51.388;6.196;2022-11-18T13:28:21;54304.38;;;-145.32;100.00